Ora Direzione Vento Velocita' Vento Media Vento Raffica Max. Temperatura Wind Chill Pioggia Pressione
01:10:21.0111 °(ESE)0.97 Kts0.97 Kts5.4 Kts18.7 °C18.7 °C0.0 mm1017.5 Hpa
23:59:35.023 °(NNE)4.67 Kts3.69 Kts12.8 Kts20.2 °C20.2 °C0.0 mm1017.5 Hpa
23:59:35.023 °(NNE)4.67 Kts3.69 Kts12.8 Kts20.2 °C20.2 °C0.0 mm1017.5 Hpa
23:59:35.023 °(NNE)4.67 Kts3.69 Kts12.8 Kts20.2 °C20.2 °C0.0 mm1017.5 Hpa
23:49:24.06 °(N)3.69 Kts3.69 Kts12.8 Kts20.1 °C20.1 °C0.0 mm1017.5 Hpa
23:29:10.062 °(ENE)5.44 Kts4.67 Kts12.8 Kts20.1 °C20.1 °C0.0 mm1017.6 Hpa
23:10:04.024 °(NNE)3.69 Kts2.72 Kts12.8 Kts20.9 °C20.9 °C0.0 mm1017.6 Hpa
22:50:21.031 °(NNE)2.72 Kts2.72 Kts12.8 Kts21.3 °C21.3 °C0.0 mm1017.6 Hpa
22:28:43.025 °(NNE)3.69 Kts2.72 Kts12.8 Kts21.3 °C21.3 °C0.0 mm1017.6 Hpa
22:09:51.024 °(NNE)3.69 Kts2.72 Kts12.8 Kts21.9 °C21.9 °C0.0 mm1017.6 Hpa
21:49:26.020 °(NNE)1.75 Kts0.97 Kts12.8 Kts22.7 °C22.7 °C0.0 mm1017.6 Hpa
21:30:20.0354 °(N)1.75 Kts1.75 Kts12.8 Kts23.2 °C23.2 °C0.0 mm1017.5 Hpa
21:10:04.0324 °(NW)1.75 Kts0.97 Kts12.8 Kts23.6 °C23.6 °C0.0 mm1017.4 Hpa
20:49:10.0330 °(NNW)1.75 Kts0.97 Kts12.8 Kts24.2 °C24.2 °C0.0 mm1017.2 Hpa
20:30:17.0316 °(NW)0.97 Kts0.97 Kts12.8 Kts24.9 °C24.9 °C0.0 mm1017.0 Hpa
20:09:56.0293 °(WNW)0.0 Kts0.0 Kts12.8 Kts26.3 °C26.3 °C0.0 mm1017.0 Hpa
19:49:07.0258 °(WSW)0.97 Kts0.0 Kts12.8 Kts27.0 °C27.0 °C0.0 mm1016.9 Hpa
19:29:54.0252 °(WSW)0.0 Kts0.0 Kts12.8 Kts27.0 °C27.0 °C0.0 mm1016.9 Hpa
19:08:59.0257 °(WSW)1.75 Kts1.75 Kts12.8 Kts26.8 °C26.8 °C0.0 mm1016.9 Hpa
18:50:17.0244 °(WSW)2.72 Kts1.75 Kts12.8 Kts27.1 °C27.1 °C0.0 mm1017.0 Hpa